Time;durP1;ratioP1;P1;durP2;ratioP2;P2;SDS_P1;SDS_P2;PMS_P1;PMS_P2;Temp;Humidity;BMP_temperature;BMP_pressure;BME280_temperature;BME280_humidity;BME280_pressure;Samples;Min_cycle;Max_cycle;Signal;HPM_P1;HPM_P2
2023/03/04 00:10:01;;;;;;;0.80;0.80;;;;;;;20.97;35.87;100929.69;21079097;28;20146;-68
2023/03/04 00:20:02;;;;;;;2.50;0.80;;;;;;;20.97;35.58;100885.16;21089650;28;20065;-67
2023/03/04 00:30:08;;;;;;;1.88;1.08;;;;;;;20.98;35.89;100831.22;21089596;28;20039;-67
2023/03/04 00:40:10;;;;;;;1.15;0.80;;;;;;;20.94;35.58;100770.88;21086933;28;20548;-66
2023/03/04 00:50:12;;;;;;;1.35;0.80;;;;;;;20.91;35.91;100735.28;21088147;28;20031;-67
2023/03/04 01:00:17;;;;;;;1.65;0.90;;;;;;;20.90;35.65;100605.69;21085295;28;20048;-67
2023/03/04 01:10:21;;;;;;;2.33;1.00;;;;;;;20.76;35.83;100564.63;21085645;28;20040;-66
2023/03/04 01:20:23;;;;;;;10.32;4.50;;;;;;;20.84;36.14;100546.47;21083624;28;20112;-66
2023/03/04 01:30:25;;;;;;;11.65;7.25;;;;;;;20.79;36.39;100555.66;21084059;28;20052;-67
2023/03/04 01:40:26;;;;;;;14.35;7.93;;;;;;;20.75;36.87;100521.22;21077939;28;20113;-66
2023/03/04 01:50:37;;;;;;;16.02;7.90;;;;;;;20.74;37.05;100463.13;21064466;28;20052;-66
2023/03/04 02:00:41;;;;;;;16.42;8.05;;;;;;;20.71;37.44;100408.94;21060275;28;20047;-64
2023/03/04 02:10:47;;;;;;;19.38;9.00;;;;;;;20.68;37.80;100328.91;21054764;28;20028;-64
2023/03/04 02:21:06;;;;;;;14.85;8.73;;;;;;;20.66;38.08;100320.00;21055148;28;20070;-64
2023/03/04 02:31:19;;;;;;;;;;;;;;;20.74;38.35;100235.13;21060573;28;20426;-64
2023/03/04 02:41:25;;;;;;;12.73;6.40;;;;;;;20.77;38.29;100107.47;21044183;28;20025;-65
2023/03/04 02:51:26;;;;;;;14.18;6.43;;;;;;;20.73;38.51;100089.72;21052130;28;20044;-65
2023/03/04 03:01:28;;;;;;;11.75;5.60;;;;;;;20.69;38.72;100032.25;21059295;28;20060;-64
2023/03/04 03:11:30;;;;;;;10.15;5.07;;;;;;;20.68;38.76;99981.38;21054379;28;20036;-64
2023/03/04 03:21:32;;;;;;;9.48;4.80;;;;;;;20.67;38.34;99895.53;21058150;28;20036;-65
2023/03/04 03:31:36;;;;;;;7.10;3.88;;;;;;;20.65;38.94;99843.00;21059839;28;20097;-65
2023/03/04 03:41:37;;;;;;;12.40;3.55;;;;;;;20.59;38.30;99810.88;21051256;28;20552;-63
2023/03/04 03:51:41;;;;;;;6.72;3.30;;;;;;;20.61;38.47;99739.09;21075178;28;20402;-64
2023/03/04 04:01:45;;;;;;;8.65;2.83;;;;;;;20.59;38.69;99743.34;21076350;28;20033;-65
2023/03/04 04:11:47;;;;;;;5.10;2.47;;;;;;;20.59;38.48;99694.13;21062434;28;20051;-64
2023/03/04 04:21:51;;;;;;;11.00;2.67;;;;;;;20.60;39.13;99651.31;21068442;28;20408;-65
2023/03/04 04:31:52;;;;;;;8.15;2.90;;;;;;;20.64;39.13;99595.94;21080355;28;20062;-64
2023/03/04 04:41:56;;;;;;;10.07;2.30;;;;;;;20.58;39.29;99514.63;21070579;28;20048;-66
2023/03/04 04:51:58;;;;;;;6.50;2.15;;;;;;;20.67;39.42;99493.28;21070538;28;20044;-67
2023/03/04 05:02:02;;;;;;;5.97;2.30;;;;;;;20.69;39.68;99390.13;21067806;28;20101;-65
2023/03/04 05:12:06;;;;;;;3.85;1.85;;;;;;;20.72;39.46;99325.56;21076180;28;20047;-66
2023/03/04 05:22:08;;;;;;;4.00;1.77;;;;;;;20.75;39.54;99286.81;21072650;28;20078;-67
2023/03/04 05:32:09;;;;;;;2.13;1.50;;;;;;;20.75;39.58;99181.19;21073127;28;20097;-65
2023/03/04 05:42:13;;;;;;;4.20;1.63;;;;;;;20.81;39.69;99218.81;21063769;28;20035;-65
2023/03/04 05:52:15;;;;;;;4.25;1.85;;;;;;;20.85;39.32;99145.88;21071238;28;20395;-66
2023/03/04 06:02:16;;;;;;;3.42;1.52;;;;;;;20.86;39.46;99222.59;21065015;28;20036;-67
2023/03/04 06:12:20;;;;;;;2.13;1.10;;;;;;;20.91;39.80;99077.88;21001875;28;1836334;-66
2023/03/04 06:22:22;;;;;;;2.38;1.33;;;;;;;20.93;39.47;99145.09;21071405;28;20800;-67
2023/03/04 06:32:24;;;;;;;3.10;1.63;;;;;;;20.90;39.74;99012.31;21071002;28;20048;-68
2023/03/04 06:42:25;;;;;;;1.52;1.17;;;;;;;20.96;39.69;99039.59;21065970;28;20483;-65
2023/03/04 06:52:26;;;;;;;2.50;1.00;;;;;;;20.98;39.67;99003.13;21071397;28;20039;-67
2023/03/04 07:02:28;;;;;;;2.70;1.20;;;;;;;21.01;39.45;98994.94;21070751;28;20561;-67
2023/03/04 07:12:29;;;;;;;2.00;1.00;;;;;;;21.01;39.84;98956.00;21069423;28;20044;-67
2023/03/04 07:22:30;;;;;;;3.97;1.23;;;;;;;21.06;39.59;98943.91;21067818;28;20067;-65
2023/03/04 07:32:35;;;;;;;6.03;1.17;;;;;;;21.09;39.87;98940.47;21064321;28;20056;-65
2023/03/04 07:42:36;;;;;;;3.47;1.13;;;;;;;21.11;39.73;98943.72;21067546;28;20044;-65
2023/03/04 07:52:39;;;;;;;2.78;1.20;;;;;;;21.11;39.53;98940.13;21023996;28;20411;-66
2023/03/04 08:02:44;;;;;;;2.63;1.35;;;;;;;21.09;39.46;98920.19;21007615;28;20086;-66
2023/03/04 08:12:48;;;;;;;0.95;0.80;;;;;;;21.11;39.51;98909.53;21003080;28;20138;-66
2023/03/04 08:22:52;;;;;;;3.08;1.13;;;;;;;20.98;39.44;98894.69;21004058;28;20138;-66
2023/03/04 08:32:55;;;;;;;1.83;1.10;;;;;;;21.14;39.45;98937.50;21025194;28;20052;-67
2023/03/04 08:43:00;;;;;;;2.33;0.85;;;;;;;21.12;39.37;98945.38;21024157;28;20044;-66
2023/03/04 08:53:04;;;;;;;1.88;0.80;;;;;;;21.17;39.03;98947.19;21039875;28;20040;-65
2023/03/04 09:03:05;;;;;;;0.70;0.50;;;;;;;21.17;38.83;98964.69;21029463;28;20125;-66
2023/03/04 09:13:10;;;;;;;2.75;0.98;;;;;;;21.15;39.17;98972.50;21024424;28;20082;-66
2023/03/04 09:23:12;;;;;;;0.95;0.82;;;;;;;21.15;39.30;99005.88;21078641;28;20098;-67
2023/03/04 09:33:13;;;;;;;0.90;0.70;;;;;;;21.18;38.95;99043.38;21084991;28;20051;-66
2023/03/04 09:43:34;;;;;;;2.80;1.00;;;;;;;20.83;38.99;99011.97;21079993;28;20040;-66
2023/03/04 09:53:56;;;;;;;3.35;1.10;;;;;;;21.16;38.78;99079.03;21080431;28;20020;-65
2023/03/04 10:04:10;;;;;;;1.08;0.77;;;;;;;21.06;38.99;99077.38;21013582;28;20044;-67
2023/03/04 10:14:21;;;;;;;1.48;0.90;;;;;;;21.14;38.99;99118.31;21081472;28;20040;-66
2023/03/04 10:24:28;;;;;;;1.70;0.90;;;;;;;21.06;39.16;99124.66;21079464;28;20044;-67
2023/03/04 10:34:30;;;;;;;0.90;0.82;;;;;;;21.18;39.17;99177.69;21067712;28;20101;-65
2023/03/04 10:44:33;;;;;;;2.03;0.98;;;;;;;21.17;38.95;99226.13;21067120;28;20499;-66
2023/03/04 10:54:51;;;;;;;1.50;0.93;;;;;;;21.17;38.99;99237.25;21078389;28;20040;-66
2023/03/04 11:05:10;;;;;;;1.20;0.60;;;;;;;21.15;38.85;99261.78;21069877;28;20560;-65
2023/03/04 11:15:26;;;;;;;;;;;;;;;21.18;38.81;99300.09;21077441;28;20044;-65
2023/03/04 11:25:44;;;;;;;0.80;0.68;;;;;;;21.21;38.52;99338.41;21070879;28;19916;-65
2023/03/04 11:35:58;;;;;;;1.80;0.70;;;;;;;21.12;38.75;99368.13;21075457;28;20401;-66
2023/03/04 11:46:20;;;;;;;1.13;0.75;;;;;;;21.12;38.73;99437.69;21075533;28;20032;-65
2023/03/04 11:56:42;;;;;;;1.42;0.80;;;;;;;21.09;38.91;99468.09;21073943;28;20047;-66
2023/03/04 12:07:23;;;;;;;0.90;0.65;;;;;;;21.11;38.91;99510.28;21082463;28;20097;-65
2023/03/04 12:17:59;;;;;;;1.30;0.65;;;;;;;21.12;38.82;99551.72;21005965;28;20044;-64
2023/03/04 12:28:54;;;;;;;1.25;0.85;;;;;;;21.15;38.67;99584.44;21005212;28;20044;-65
2023/03/04 12:38:59;;;;;;;1.08;0.70;;;;;;;21.19;38.72;99606.91;20896178;28;20066;-65
2023/03/04 12:49:42;;;;;;;1.15;0.80;;;;;;;21.16;38.36;99629.78;21075420;28;20040;-65
2023/03/04 12:59:59;;;;;;;1.17;0.68;;;;;;;21.20;38.53;99656.66;21070048;28;20048;-65
2023/03/04 13:10:11;;;;;;;1.02;0.60;;;;;;;21.20;38.61;99676.13;21059694;28;20552;-65
2023/03/04 13:20:26;;;;;;;0.68;0.68;;;;;;;21.21;38.08;99683.38;21052347;28;20116;-66
2023/03/04 13:30:31;;;;;;;1.02;0.65;;;;;;;21.23;38.22;99713.63;21083566;28;20052;-66
2023/03/04 13:40:36;;;;;;;0.55;0.55;;;;;;;21.14;38.26;99733.03;21079187;28;20093;-65
2023/03/04 13:50:43;;;;;;;0.73;0.68;;;;;;;21.26;37.98;99755.59;21018980;28;20082;-66
2023/03/04 14:00:53;;;;;;;0.65;0.65;;;;;;;21.25;38.23;99778.94;21081125;28;20048;-65
2023/03/04 14:10:58;;;;;;;0.77;0.55;;;;;;;21.26;37.93;99808.44;21081091;28;20035;-67
2023/03/04 14:21:00;;;;;;;0.50;0.50;;;;;;;21.28;38.16;99822.03;21080605;28;20168;-65
2023/03/04 14:31:01;;;;;;;0.60;0.52;;;;;;;21.28;38.06;99834.00;21078951;28;20040;-65
2023/03/04 14:41:17;;;;;;;0.60;0.60;;;;;;;21.27;37.83;99854.59;21077413;28;20040;-66
2023/03/04 14:51:31;;;;;;;1.10;0.50;;;;;;;21.27;37.74;99893.56;21075680;28;20055;-66
2023/03/04 15:01:38;;;;;;;0.50;0.50;;;;;;;21.25;37.59;99895.81;21044700;28;20079;-66
2023/03/04 15:12:03;;;;;;;0.65;0.50;;;;;;;21.36;37.42;99934.63;21064880;28;20088;-66
2023/03/04 15:22:05;;;;;;;0.57;0.57;;;;;;;21.44;37.49;99975.63;21076635;28;20044;-65
2023/03/04 15:32:08;;;;;;;0.75;0.75;;;;;;;21.45;37.65;100002.34;21061999;28;20043;-66
2023/03/04 15:42:13;;;;;;;0.30;0.30;;;;;;;21.47;37.47;100020.38;21087018;28;20044;-65
2023/03/04 15:52:22;;;;;;;0.32;0.32;;;;;;;21.50;37.41;100030.09;21092715;28;20027;-66
2023/03/04 16:02:29;;;;;;;3.45;0.50;;;;;;;21.52;37.73;100052.88;21091334;28;20529;-66
2023/03/04 16:12:39;;;;;;;0.82;0.50;;;;;;;21.54;37.63;100070.09;21081168;28;20105;-65
2023/03/04 16:22:42;;;;;;;1.73;0.55;;;;;;;21.58;37.78;100098.97;21089212;28;20048;-65
2023/03/04 16:32:44;;;;;;;2.05;0.60;;;;;;;21.62;37.73;100113.09;21088313;28;20431;-65
2023/03/04 16:42:45;;;;;;;1.13;0.60;;;;;;;21.63;37.66;100135.09;21087249;28;20093;-65
2023/03/04 16:52:48;;;;;;;0.90;0.60;;;;;;;21.66;37.79;100130.84;21080816;28;20121;-65
2023/03/04 17:02:55;;;;;;;1.88;0.47;;;;;;;21.51;37.80;100131.94;21078353;28;20113;-65
2023/03/04 17:13:03;;;;;;;38.88;18.45;;;;;;;21.71;37.92;100186.44;21056374;28;20101;-64
2023/03/04 17:23:04;;;;;;;125.00;56.33;;;;;;;21.63;37.80;100188.00;21084278;28;20070;-65
2023/03/04 17:33:06;;;;;;;128.60;58.78;;;;;;;21.73;37.93;100229.59;21078797;28;20039;-65
2023/03/04 17:43:10;;;;;;;131.15;60.13;;;;;;;21.73;37.58;100243.50;21083553;28;20089;-64
2023/03/04 17:53:11;;;;;;;137.30;61.60;;;;;;;21.66;37.82;100248.63;21082460;28;20101;-65
2023/03/04 18:03:13;;;;;;;122.72;57.33;;;;;;;21.72;37.56;100264.13;21080766;28;20048;-65
2023/03/04 18:13:15;;;;;;;118.15;55.13;;;;;;;21.77;37.48;100294.69;21080194;28;20052;-64
2023/03/04 18:23:16;;;;;;;108.65;49.80;;;;;;;21.79;37.89;100327.78;21079937;28;20439;-65
2023/03/04 18:33:19;;;;;;;102.97;46.17;;;;;;;21.75;39.62;100337.88;21079884;28;20536;-65
2023/03/04 18:43:20;;;;;;;94.93;40.88;;;;;;;21.81;40.20;100367.31;21078582;28;20043;-66
2023/03/04 18:53:21;;;;;;;81.20;39.05;;;;;;;21.73;39.37;100404.19;21078621;28;20028;-64
2023/03/04 19:03:23;;;;;;;81.78;37.13;;;;;;;21.71;38.92;100423.97;21077286;28;20040;-64
2023/03/04 19:13:29;;;;;;;75.25;35.10;;;;;;;21.71;38.85;100429.53;21076996;28;20060;-66
2023/03/04 19:23:30;;;;;;;67.75;32.75;;;;;;;21.66;38.40;100449.09;21076651;28;20058;-64
2023/03/04 19:33:37;;;;;;;55.78;28.77;;;;;;;21.61;38.56;100451.13;21076232;28;20043;-65
2023/03/04 19:43:39;;;;;;;59.97;27.75;;;;;;;21.48;38.57;100461.00;21075581;28;20105;-65
2023/03/04 19:53:40;;;;;;;51.40;26.13;;;;;;;21.53;38.44;100488.78;21074456;28;20036;-65
2023/03/04 20:03:42;;;;;;;48.22;23.88;;;;;;;21.49;38.39;100513.63;21073991;28;20116;-65
2023/03/04 20:13:43;;;;;;;52.17;23.88;;;;;;;21.47;38.34;100543.69;21074238;28;20101;-65
2023/03/04 20:23:45;;;;;;;38.88;20.98;;;;;;;21.38;38.25;100562.16;21076911;28;21048;-65
2023/03/04 20:33:48;;;;;;;39.95;20.85;;;;;;;21.41;38.33;100583.84;21089103;28;20031;-65
2023/03/04 20:43:49;;;;;;;35.63;19.40;;;;;;;21.39;38.52;100596.41;21088579;28;20031;-65
2023/03/04 20:53:52;;;;;;;43.22;17.45;;;;;;;21.37;38.32;100637.63;21087619;28;20089;-65
2023/03/04 21:03:54;;;;;;;32.08;16.67;;;;;;;21.35;38.31;100684.38;21086020;28;20048;-65
2023/03/04 21:13:56;;;;;;;29.75;15.55;;;;;;;21.34;38.40;100696.63;21085126;28;20040;-66
2023/03/04 21:23:58;;;;;;;27.73;14.25;;;;;;;21.29;38.35;100720.56;21084279;28;20452;-66
2023/03/04 21:34:05;;;;;;;27.52;14.05;;;;;;;21.26;38.13;100757.34;21083958;28;20036;-65
2023/03/04 21:44:07;;;;;;;26.33;14.07;;;;;;;21.24;38.31;100794.91;21083072;28;20086;-65
2023/03/04 21:54:09;;;;;;;21.77;11.55;;;;;;;21.19;38.32;100815.25;21082551;28;20081;-65
2023/03/04 22:04:14;;;;;;;22.00;12.45;;;;;;;21.19;38.25;100859.78;21081879;28;20093;-64
2023/03/04 22:14:18;;;;;;;21.50;10.85;;;;;;;21.17;38.26;100898.22;21081103;28;20040;-64
2023/03/04 22:24:20;;;;;;;19.65;10.13;;;;;;;21.13;38.05;100902.66;21080521;28;20042;-65
2023/03/04 22:34:22;;;;;;;18.38;9.95;;;;;;;21.02;37.87;100907.41;21079356;28;20040;-65
2023/03/04 22:44:23;;;;;;;21.35;10.57;;;;;;;21.10;38.18;100947.75;21078811;28;20044;-65
2023/03/04 22:54:30;;;;;;;18.88;9.32;;;;;;;21.07;37.89;100970.56;21076156;28;20028;-66
2023/03/04 23:04:31;;;;;;;14.98;8.65;;;;;;;21.06;38.02;100985.59;21077716;28;20475;-64
2023/03/04 23:14:36;;;;;;;13.20;7.82;;;;;;;21.01;38.08;101000.34;21077256;28;20044;-64
2023/03/04 23:24:43;;;;;;;12.90;7.55;;;;;;;20.92;37.79;101015.09;21076191;28;20044;-65
2023/03/04 23:34:51;;;;;;;13.93;7.40;;;;;;;20.98;37.95;101058.47;21077000;28;20035;-65
2023/03/04 23:44:53;;;;;;;11.00;6.90;;;;;;;20.97;37.57;101067.94;21075945;28;20101;-65
2023/03/04 23:54:57;;;;;;;11.35;6.10;;;;;;;21.11;37.24;101118.31;21073320;28;20105;-65
